Time;durP1;ratioP1;P1;durP2;ratioP2;P2;SDS_P1;SDS_P2;PMS_P1;PMS_P2;Temp;Humidity;BMP_temperature;BMP_pressure;BME280_temperature;BME280_humidity;BME280_pressure;Samples;Min_cycle;Max_cycle;Signal;HPM_P1;HPM_P2
2021/07/13 00:01:20;;;;;;;5.07;3.05;;;18.00;99.90;;;;;;6226437;28;20395;-86
2021/07/13 00:04:21;;;;;;;6.32;3.20;;;18.00;99.90;;;;;;6243198;28;20077;-85
2021/07/13 00:07:22;;;;;;;4.07;2.88;;;18.00;99.90;;;;;;6242746;28;20535;-87
2021/07/13 00:10:27;;;;;;;4.95;2.72;;;17.90;99.90;;;;;;6243014;28;20025;-87
2021/07/13 00:13:27;;;;;;;5.18;3.42;;;18.00;99.90;;;;;;6235669;28;20030;-86
2021/07/13 00:16:28;;;;;;;4.78;3.40;;;;;;;;;;6235766;28;20511;-86
2021/07/13 00:19:29;;;;;;;6.70;3.72;;;;;;;;;;6236098;28;20084;-88
2021/07/13 00:22:30;;;;;;;5.05;3.28;;;18.10;99.90;;;;;;6221748;28;20080;-88
2021/07/13 00:25:31;;;;;;;4.90;3.22;;;;;;;;;;6217712;28;20030;-86
2021/07/13 00:28:33;;;;;;;4.65;3.47;;;;;;;;;;6234929;28;20053;-88
2021/07/13 00:31:34;;;;;;;4.68;3.40;;;17.60;99.90;;;;;;6242869;28;20025;-86
2021/07/13 00:34:35;;;;;;;4.25;3.30;;;;;;;;;;6242278;28;20464;-86
2021/07/13 00:37:36;;;;;;;5.15;3.50;;;17.80;99.90;;;;;;6235033;28;20029;-86
2021/07/13 00:40:36;;;;;;;5.13;3.50;;;17.80;99.90;;;;;;6241914;28;20076;-86
2021/07/13 00:43:37;;;;;;;5.18;3.60;;;17.80;99.90;;;;;;6226013;28;20057;-86
2021/07/13 00:46:48;;;;;;;4.32;3.15;;;17.80;99.90;;;;;;6242455;28;20587;-87
2021/07/13 00:49:49;;;;;;;8.52;3.90;;;17.90;99.90;;;;;;6241425;28;20389;-86
2021/07/13 00:52:49;;;;;;;5.10;3.15;;;17.80;99.90;;;;;;6241888;28;20053;-86
2021/07/13 00:55:50;;;;;;;4.53;3.03;;;17.80;99.90;;;;;;6258113;28;20091;-86
2021/07/13 00:58:51;;;;;;;5.53;3.20;;;;;;;;;;6242101;28;20116;-86
2021/07/13 01:01:52;;;;;;;4.00;3.30;;;;;;;;;;6241899;28;20022;-86
2021/07/13 01:04:58;;;;;;;5.35;3.30;;;17.80;99.90;;;;;;6242047;28;20025;-84
2021/07/13 01:08:14;;;;;;;6.05;3.30;;;17.80;99.90;;;;;;6242163;28;20029;-84
2021/07/13 01:11:21;;;;;;;5.70;3.40;;;17.60;99.90;;;;;;6242988;28;20025;-84
2021/07/13 01:14:25;;;;;;;4.93;3.45;;;17.50;99.90;;;;;;6241643;28;20034;-84
2021/07/13 01:18:00;;;;;;;6.82;3.38;;;17.50;99.90;;;;;;6250699;28;20443;-85
2021/07/13 01:21:19;;;;;;;4.05;3.30;;;17.50;99.90;;;;;;6236661;28;20052;-84
2021/07/13 01:24:36;;;;;;;5.00;3.53;;;16.30;99.90;;;;;;6251903;28;20034;-84
2021/07/13 01:28:04;;;;;;;8.95;3.85;;;17.50;99.90;;;;;;6257921;28;20246;-85
2021/07/13 01:31:06;;;;;;;7.82;3.75;;;17.60;99.90;;;;;;6238208;28;20026;-85
2021/07/13 01:34:08;;;;;;;;;;;17.70;99.90;;;;;;6241673;28;20344;-86
2021/07/13 01:37:09;;;;;;;4.13;3.07;;;17.70;99.90;;;;;;6259539;28;20032;-84
2021/07/13 01:40:10;;;;;;;3.80;3.25;;;17.60;99.90;;;;;;6246438;28;20022;-85
2021/07/13 01:43:10;;;;;;;5.07;3.25;;;17.60;99.90;;;;;;6246199;28;20068;-84
2021/07/13 01:46:12;;;;;;;4.97;3.30;;;17.60;99.90;;;;;;6246081;28;20029;-86
2021/07/13 01:49:16;;;;;;;7.90;3.58;;;17.70;99.90;;;;;;6229620;28;20033;-86
2021/07/13 01:52:17;;;;;;;7.90;3.80;;;17.70;99.90;;;;;;6243166;28;20487;-85
2021/07/13 01:55:17;;;;;;;6.55;3.80;;;17.70;99.90;;;;;;6246224;28;20038;-84
2021/07/13 01:58:18;;;;;;;11.18;3.60;;;17.70;99.90;;;;;;6246149;28;20033;-84
2021/07/13 02:01:23;;;;;;;4.20;3.05;;;17.70;99.90;;;;;;6245948;28;20143;-84
2021/07/13 02:04:29;;;;;;;6.60;4.20;;;17.70;99.90;;;;;;6245566;28;20068;-84
2021/07/13 02:07:32;;;;;;;5.70;3.25;;;17.70;99.90;;;;;;6229583;28;20033;-84
2021/07/13 02:10:32;;;;;;;;;;;17.70;99.90;;;;;;6245803;28;20029;-84
2021/07/13 02:13:33;;;;;;;7.80;3.10;;;17.70;99.90;;;;;;6234341;28;20014;-84
2021/07/13 02:16:33;;;;;;;4.82;3.22;;;17.70;99.90;;;;;;6245177;28;20043;-84
2021/07/13 02:19:34;;;;;;;4.25;2.97;;;17.60;99.90;;;;;;6245510;28;20053;-83
2021/07/13 02:22:35;;;;;;;7.35;3.13;;;17.60;99.90;;;;;;6245362;28;20129;-83
2021/07/13 02:25:36;;;;;;;3.60;3.00;;;17.40;99.90;;;;;;6228612;28;20391;-84
2021/07/13 02:28:45;;;;;;;5.90;3.78;;;17.50;99.90;;;;;;6245618;28;20032;-84
2021/07/13 02:31:54;;;;;;;6.32;3.60;;;17.50;99.90;;;;;;6245248;28;20030;-85
2021/07/13 02:34:54;;;;;;;5.03;3.00;;;17.40;99.90;;;;;;6245259;28;20034;-83
2021/07/13 02:37:55;;;;;;;5.20;3.25;;;17.40;99.90;;;;;;6228402;28;20072;-85
2021/07/13 02:40:56;;;;;;;4.43;3.55;;;17.30;99.90;;;;;;6244928;28;20028;-83
2021/07/13 02:43:56;;;;;;;5.90;3.38;;;17.20;99.90;;;;;;6237382;28;20456;-85
2021/07/13 02:46:57;;;;;;;4.57;3.58;;;17.20;99.90;;;;;;6245185;28;20034;-85
2021/07/13 02:49:57;;;;;;;6.57;3.50;;;16.90;99.90;;;;;;6244610;28;20026;-85
2021/07/13 02:52:58;;;;;;;6.45;3.70;;;17.10;99.90;;;;;;6227868;28;20025;-86
2021/07/13 02:55:59;;;;;;;6.18;3.30;;;17.50;99.90;;;;;;6228205;28;20044;-86
2021/07/13 02:59:00;;;;;;;4.40;2.93;;;17.20;99.90;;;;;;6227742;28;20595;-85
2021/07/13 03:02:00;;;;;;;4.18;3.45;;;17.20;99.90;;;;;;6237964;28;20030;-85
2021/07/13 03:05:01;;;;;;;7.93;3.08;;;17.30;99.90;;;;;;6244463;28;20027;-85
2021/07/13 03:08:02;;;;;;;4.55;3.40;;;17.30;99.90;;;;;;6244680;28;20029;-85
2021/07/13 03:11:02;;;;;;;5.05;2.80;;;17.20;99.90;;;;;;6236616;28;20037;-86
2021/07/13 03:14:03;;;;;;;5.13;3.13;;;17.20;99.90;;;;;;6244719;28;20029;-85
2021/07/13 03:17:04;;;;;;;3.60;2.65;;;17.20;99.90;;;;;;6243746;28;20151;-85
2021/07/13 03:20:05;;;;;;;4.20;2.67;;;17.30;99.90;;;;;;6243986;28;20119;-84
2021/07/13 03:23:06;;;;;;;4.25;2.90;;;17.30;99.90;;;;;;6244699;28;20034;-84
2021/07/13 03:26:07;;;;;;;8.25;3.50;;;17.30;99.90;;;;;;6243697;28;20122;-84
2021/07/13 03:29:08;;;;;;;5.07;3.00;;;17.30;99.90;;;;;;6244463;28;20041;-86
2021/07/13 03:32:08;;;;;;;5.00;2.75;;;17.20;99.90;;;;;;6220802;28;20120;-86
2021/07/13 03:35:09;;;;;;;7.05;3.95;;;17.40;99.90;;;;;;6243675;28;20103;-84
2021/07/13 03:38:10;;;;;;;7.57;3.90;;;17.20;99.90;;;;;;6243440;28;20052;-84
2021/07/13 03:41:11;;;;;;;6.82;3.63;;;17.50;99.90;;;;;;6227176;28;20033;-85
2021/07/13 03:44:12;;;;;;;11.77;4.32;;;17.50;99.90;;;;;;6239800;28;20026;-86
2021/07/13 03:47:16;;;;;;;4.38;3.78;;;17.20;99.90;;;;;;6243191;28;20516;-84
2021/07/13 03:50:17;;;;;;;6.10;3.30;;;17.30;99.90;;;;;;6224160;28;20034;-87
2021/07/13 03:53:18;;;;;;;4.10;3.37;;;;;;;;;;6242901;28;20025;-84
2021/07/13 03:56:19;;;;;;;4.90;3.10;;;17.30;99.90;;;;;;6243765;28;20148;-84
2021/07/13 03:59:19;;;;;;;7.95;3.95;;;17.20;99.90;;;;;;6241933;28;20037;-87
2021/07/13 04:02:20;;;;;;;5.70;3.15;;;17.40;99.90;;;;;;6240315;28;20057;-85
2021/07/13 04:05:21;;;;;;;4.10;2.58;;;17.20;99.90;;;;;;6242941;28;20044;-85
2021/07/13 04:08:21;;;;;;;5.40;2.45;;;17.30;99.90;;;;;;6226753;28;20025;-84
2021/07/13 04:11:22;;;;;;;2.92;2.28;;;17.20;99.90;;;;;;6236098;28;20040;-85
2021/07/13 04:14:22;;;;;;;4.32;2.10;;;17.20;99.90;;;;;;6251904;28;20088;-84
2021/07/13 04:17:23;;;;;;;2.88;1.88;;;17.10;99.90;;;;;;6241293;28;20077;-83
2021/07/13 04:20:23;;;;;;;2.10;1.80;;;17.00;99.90;;;;;;6237226;28;20131;-84
2021/07/13 04:23:24;;;;;;;2.72;1.38;;;17.00;99.90;;;;;;6239559;28;20022;-84
2021/07/13 04:26:25;;;;;;;1.27;1.17;;;17.20;99.90;;;;;;6236302;28;20022;-84
2021/07/13 04:29:25;;;;;;;1.25;1.15;;;16.90;99.90;;;;;;6242268;28;20538;-84
2021/07/13 04:32:26;;;;;;;1.10;1.00;;;16.90;99.90;;;;;;6242193;28;20026;-84
2021/07/13 04:35:26;;;;;;;0.98;0.90;;;16.80;99.90;;;;;;6242146;28;20090;-85
2021/07/13 04:38:27;;;;;;;1.55;1.45;;;16.60;99.90;;;;;;6242230;28;20052;-84
2021/07/13 04:41:27;;;;;;;1.30;1.20;;;16.50;99.90;;;;;;6224518;28;20357;-84
2021/07/13 04:44:28;;;;;;;1.20;1.00;;;16.40;99.90;;;;;;6242562;28;20057;-82
2021/07/13 04:47:28;;;;;;;1.15;1.05;;;16.40;99.90;;;;;;6236750;28;20040;-82
2021/07/13 04:50:29;;;;;;;0.90;0.90;;;16.30;99.90;;;;;;6238169;28;20124;-82
2021/07/13 04:53:31;;;;;;;0.68;0.60;;;16.30;99.90;;;;;;6232778;28;20061;-83
2021/07/13 04:56:32;;;;;;;0.57;0.57;;;16.30;99.90;;;;;;6235646;28;20057;-83
2021/07/13 04:59:32;;;;;;;1.60;1.00;;;16.30;99.90;;;;;;6234876;28;20461;-84
2021/07/13 05:02:34;;;;;;;1.30;1.27;;;16.30;99.90;;;;;;6240868;28;20025;-84
2021/07/13 05:05:34;;;;;;;2.28;1.20;;;16.30;99.90;;;;;;6234026;28;20041;-83
2021/07/13 05:08:35;;;;;;;1.27;1.02;;;16.30;99.90;;;;;;6235692;28;20411;-79
2021/07/13 05:11:37;;;;;;;2.60;1.40;;;16.60;99.90;;;;;;6234383;28;20034;-80
2021/07/13 05:14:38;;;;;;;2.27;0.70;;;;;;;;;;6236330;28;20065;-82
2021/07/13 05:17:38;;;;;;;6.15;1.60;;;16.30;99.90;;;;;;6241590;28;20546;-82
2021/07/13 05:20:43;;;;;;;1.55;0.65;;;16.20;99.90;;;;;;6224865;28;20045;-81
2021/07/13 05:23:44;;;;;;;0.95;0.50;;;16.10;99.90;;;;;;6241658;28;20446;-81
2021/07/13 05:26:44;;;;;;;0.60;0.60;;;16.10;99.90;;;;;;6241156;28;20040;-81
2021/07/13 05:29:45;;;;;;;0.45;0.40;;;16.00;99.90;;;;;;6242624;28;20115;-80
2021/07/13 05:32:46;;;;;;;1.45;0.60;;;15.90;99.90;;;;;;6241110;28;20671;-81
2021/07/13 05:35:46;;;;;;;0.82;0.70;;;15.80;99.90;;;;;;6242505;28;20041;-80
2021/07/13 05:38:47;;;;;;;0.47;0.47;;;15.70;99.90;;;;;;6224917;28;20486;-80
2021/07/13 05:41:48;;;;;;;0.32;0.32;;;15.60;99.90;;;;;;6216952;28;20495;-79
2021/07/13 05:44:48;;;;;;;2.22;0.70;;;15.60;99.90;;;;;;6241092;28;20029;-78
2021/07/13 05:47:49;;;;;;;0.60;0.60;;;15.60;99.90;;;;;;6216816;28;20392;-78
2021/07/13 05:50:49;;;;;;;0.43;0.43;;;15.60;99.90;;;;;;6233421;28;20028;-79
2021/07/13 05:53:50;;;;;;;1.70;0.50;;;15.50;99.90;;;;;;6234657;28;20067;-79
2021/07/13 05:56:51;;;;;;;1.52;0.88;;;15.60;99.90;;;;;;6241376;28;20041;-80
2021/07/13 05:59:51;;;;;;;0.50;0.50;;;15.50;99.90;;;;;;6241932;28;20040;-79
2021/07/13 06:02:52;;;;;;;0.95;0.52;;;15.50;99.90;;;;;;6242577;28;20099;-79
2021/07/13 06:05:53;;;;;;;0.80;0.80;;;15.40;99.90;;;;;;6242018;28;20056;-79
2021/07/13 06:08:53;;;;;;;0.30;0.30;;;15.30;99.90;;;;;;6220587;28;20053;-79
2021/07/13 06:11:57;;;;;;;0.73;0.73;;;15.40;99.90;;;;;;6240653;28;20033;-79
2021/07/13 06:14:58;;;;;;;0.52;0.52;;;15.20;99.90;;;;;;6241093;28;20543;-79
2021/07/13 06:17:58;;;;;;;0.50;0.50;;;17.20;99.90;;;;;;6239297;28;20037;-79
2021/07/13 06:20:59;;;;;;;0.60;0.60;;;15.30;99.90;;;;;;6233147;28;20056;-79
2021/07/13 06:23:59;;;;;;;0.65;0.65;;;15.30;99.90;;;;;;6221517;28;20021;-79
2021/07/13 06:27:00;;;;;;;2.65;0.65;;;15.30;99.90;;;;;;6222889;28;20026;-79
2021/07/13 06:30:01;;;;;;;0.55;0.55;;;15.30;99.90;;;;;;6245184;28;20029;-79
2021/07/13 06:33:02;;;;;;;0.85;0.75;;;15.10;99.90;;;;;;6244921;28;20455;-79
2021/07/13 06:36:02;;;;;;;0.60;0.60;;;15.60;99.90;;;;;;6245164;28;20116;-78
2021/07/13 06:39:03;;;;;;;1.42;0.70;;;15.20;99.90;;;;;;6245372;28;20049;-79
2021/07/13 06:42:04;;;;;;;1.13;0.60;;;15.10;99.90;;;;;;6245072;28;20025;-79
2021/07/13 06:45:05;;;;;;;0.55;0.55;;;15.00;99.90;;;;;;6245365;28;20033;-79
2021/07/13 06:48:07;;;;;;;1.42;0.60;;;;;;;;;;6244618;28;20030;-80
2021/07/13 06:51:07;;;;;;;0.60;0.60;;;15.60;99.90;;;;;;6233950;28;20427;-79
2021/07/13 06:54:08;;;;;;;1.25;0.60;;;15.40;99.90;;;;;;6261231;28;20044;-79
2021/07/13 06:57:09;;;;;;;1.38;0.40;;;;;;;;;;6244899;28;20131;-79
2021/07/13 07:00:10;;;;;;;0.45;0.43;;;15.70;99.90;;;;;;6245875;28;20481;-79
2021/07/13 07:03:10;;;;;;;1.83;0.65;;;15.90;99.90;;;;;;6245656;28;20033;-79
2021/07/13 07:06:11;;;;;;;0.70;0.70;;;15.70;99.90;;;;;;6244497;28;20387;-79
2021/07/13 07:09:12;;;;;;;0.80;0.80;;;15.70;99.90;;;;;;6232737;28;20030;-79
2021/07/13 07:12:12;;;;;;;1.05;1.05;;;15.80;99.90;;;;;;6242545;28;20026;-79
2021/07/13 07:15:13;;;;;;;0.63;0.63;;;16.00;99.90;;;;;;6227474;28;20045;-80
2021/07/13 07:18:14;;;;;;;0.70;0.70;;;16.00;99.90;;;;;;6261023;28;20041;-79
2021/07/13 07:21:14;;;;;;;0.73;0.73;;;16.00;99.90;;;;;;6239462;28;20050;-79
2021/07/13 07:24:15;;;;;;;0.63;0.63;;;16.00;99.90;;;;;;6236849;28;20033;-79
2021/07/13 07:27:15;;;;;;;0.75;0.75;;;16.00;99.90;;;;;;6243894;28;20494;-79
2021/07/13 07:30:17;;;;;;;2.70;1.33;;;16.10;99.90;;;;;;6244041;28;20434;-79
2021/07/13 07:33:17;;;;;;;2.20;1.07;;;16.10;99.90;;;;;;6219719;28;20072;-79
2021/07/13 07:36:20;;;;;;;0.98;0.98;;;16.00;99.90;;;;;;6259803;28;20454;-79
2021/07/13 07:39:20;;;;;;;;;;;15.90;99.90;;;;;;6244243;28;20475;-80
2021/07/13 07:42:21;;;;;;;0.70;0.70;;;15.80;99.90;;;;;;6244520;28;19988;-79
2021/07/13 07:45:22;;;;;;;0.85;0.82;;;15.80;99.90;;;;;;6227319;28;20033;-79
2021/07/13 07:48:22;;;;;;;1.05;1.05;;;15.80;99.90;;;;;;6243674;28;20041;-79
2021/07/13 07:51:23;;;;;;;0.95;0.85;;;15.80;99.90;;;;;;6227078;28;20025;-79
2021/07/13 07:54:24;;;;;;;0.88;0.88;;;15.70;99.90;;;;;;6244039;28;20117;-79
2021/07/13 07:57:24;;;;;;;1.35;1.00;;;15.70;99.90;;;;;;6243360;28;20483;-79
2021/07/13 08:00:25;;;;;;;1.10;1.05;;;15.70;99.90;;;;;;6243055;28;20030;-79
2021/07/13 08:03:26;;;;;;;0.90;0.90;;;15.70;99.90;;;;;;6243085;28;20038;-79
2021/07/13 08:06:26;;;;;;;1.67;1.50;;;15.70;99.90;;;;;;6244031;28;20045;-79
2021/07/13 08:09:27;;;;;;;3.08;1.45;;;15.60;99.90;;;;;;6243571;28;20033;-79
2021/07/13 08:12:28;;;;;;;3.50;1.60;;;15.60;99.90;;;;;;6238447;28;20072;-79
2021/07/13 08:15:28;;;;;;;1.67;1.45;;;15.60;99.90;;;;;;6242467;28;20556;-79
2021/07/13 08:18:29;;;;;;;1.27;1.17;;;15.50;99.90;;;;;;6243053;28;20516;-79
2021/07/13 08:21:30;;;;;;;1.88;1.30;;;15.40;99.90;;;;;;6226820;28;20046;-79
2021/07/13 08:24:30;;;;;;;1.15;1.15;;;15.30;99.90;;;;;;6250780;28;20030;-79
2021/07/13 08:27:31;;;;;;;1.38;1.17;;;15.20;99.90;;;;;;6217680;28;20184;-79
2021/07/13 08:30:31;;;;;;;1.52;1.42;;;15.20;99.90;;;;;;6219215;28;20054;-79
2021/07/13 08:33:32;;;;;;;1.25;1.15;;;15.10;99.90;;;;;;6234283;28;20036;-79
2021/07/13 08:36:32;;;;;;;1.30;1.30;;;15.00;99.90;;;;;;6234206;28;20124;-79
2021/07/13 08:39:33;;;;;;;0.63;0.63;;;15.00;99.90;;;;;;6226917;28;20038;-79
2021/07/13 08:42:37;;;;;;;1.10;1.00;;;15.20;99.90;;;;;;6195691;28;20034;-79
2021/07/13 08:45:38;;;;;;;1.45;1.30;;;14.90;99.90;;;;;;6233688;28;20079;-79
2021/07/13 08:48:39;;;;;;;1.60;1.50;;;14.90;99.90;;;;;;6234398;28;20037;-79
2021/07/13 08:51:40;;;;;;;1.40;1.30;;;14.90;99.90;;;;;;6234146;28;20032;-79
2021/07/13 08:54:41;;;;;;;1.55;1.45;;;14.90;99.90;;;;;;6234530;28;20034;-79
2021/07/13 08:57:43;;;;;;;1.60;1.50;;;15.00;99.90;;;;;;6226533;28;20038;-79
2021/07/13 09:00:44;;;;;;;1.67;1.58;;;14.90;99.90;;;;;;6233275;28;20120;-79
2021/07/13 09:03:55;;;;;;;1.55;1.45;;;15.10;99.90;;;;;;6234048;28;20083;-79
2021/07/13 09:06:56;;;;;;;2.03;1.77;;;15.00;99.90;;;;;;6234078;28;20026;-79
2021/07/13 09:10:05;;;;;;;1.58;1.48;;;15.00;99.90;;;;;;6216988;28;20030;-79
2021/07/13 09:13:05;;;;;;;1.80;1.70;;;15.20;99.90;;;;;;6233803;28;20092;-79
2021/07/13 09:16:08;;;;;;;1.52;1.38;;;15.20;99.90;;;;;;6233565;28;20547;-79
2021/07/13 09:19:09;;;;;;;2.33;1.90;;;15.10;99.90;;;;;;6228013;28;20076;-79
2021/07/13 09:22:09;;;;;;;3.78;1.80;;;15.10;99.90;;;;;;6241413;28;20030;-79
2021/07/13 09:25:44;;;;;;;1.80;1.67;;;15.20;99.90;;;;;;6241732;28;20029;-79
2021/07/13 09:28:45;;;;;;;3.58;1.60;;;15.20;99.90;;;;;;6239207;28;20041;-79
2021/07/13 09:31:46;;;;;;;1.95;1.58;;;15.10;99.90;;;;;;6225381;28;20073;-79
2021/07/13 09:34:47;;;;;;;1.70;1.60;;;15.30;99.90;;;;;;6241137;28;20049;-79
2021/07/13 09:37:48;;;;;;;1.58;1.48;;;15.40;99.90;;;;;;6241483;28;20139;-79
2021/07/13 09:40:48;;;;;;;2.03;1.83;;;15.30;99.90;;;;;;6237754;28;20460;-79
2021/07/13 09:43:53;;;;;;;2.58;1.85;;;15.30;99.90;;;;;;6218882;28;20037;-79
2021/07/13 09:46:53;;;;;;;2.13;1.70;;;15.30;99.90;;;;;;6225237;28;20033;-79
2021/07/13 09:49:54;;;;;;;1.45;1.35;;;;;;;;;;6241647;28;20030;-78
2021/07/13 09:53:01;;;;;;;2.72;1.98;;;15.30;99.90;;;;;;6241150;28;20116;-79
2021/07/13 09:56:02;;;;;;;1.92;1.65;;;15.10;99.90;;;;;;6233652;28;20037;-79
2021/07/13 09:59:03;;;;;;;2.35;1.80;;;15.20;99.90;;;;;;6236773;28;20038;-79
2021/07/13 10:02:05;;;;;;;1.73;1.63;;;15.10;99.90;;;;;;6223682;28;20109;-79
2021/07/13 10:05:05;;;;;;;2.03;1.85;;;15.30;99.90;;;;;;6254638;28;20053;-79
2021/07/13 10:08:06;;;;;;;3.80;2.38;;;15.30;99.90;;;;;;6245901;28;20581;-79
2021/07/13 10:11:07;;;;;;;2.67;2.17;;;15.40;99.90;;;;;;6245716;28;21338;-79
2021/07/13 10:14:09;;;;;;;2.83;2.20;;;15.40;99.90;;;;;;6245718;28;20030;-79
2021/07/13 10:17:10;;;;;;;2.33;1.77;;;15.30;99.90;;;;;;6245566;28;20040;-79
2021/07/13 10:20:10;;;;;;;3.22;2.42;;;15.30;99.90;;;;;;6245463;28;20041;-79
2021/07/13 10:23:12;;;;;;;2.25;1.90;;;15.40;99.90;;;;;;6239848;28;20026;-80
2021/07/13 10:26:12;;;;;;;2.40;2.17;;;15.40;99.90;;;;;;6245282;28;20060;-80
2021/07/13 10:29:32;;;;;;;2.20;1.95;;;15.50;99.90;;;;;;6245670;28;20029;-80
2021/07/13 10:32:40;;;;;;;2.00;1.80;;;15.60;99.90;;;;;;6261921;28;20116;-79
2021/07/13 10:35:40;;;;;;;2.05;1.88;;;15.70;99.90;;;;;;6245522;28;20036;-80
2021/07/13 10:38:41;;;;;;;2.42;2.22;;;15.90;99.90;;;;;;6244894;28;20037;-80
2021/07/13 10:41:42;;;;;;;2.25;2.05;;;15.90;99.90;;;;;;6245035;28;20040;-80
2021/07/13 10:44:47;;;;;;;2.28;2.05;;;16.10;99.90;;;;;;6246810;28;20037;-80
2021/07/13 10:48:12;;;;;;;2.47;1.85;;;16.40;99.90;;;;;;6244695;28;20033;-80
2021/07/13 10:51:13;;;;;;;2.40;2.20;;;16.70;99.90;;;;;;6236933;28;20041;-79
2021/07/13 10:54:15;;;;;;;2.75;2.30;;;16.70;99.90;;;;;;6244820;28;20048;-79
2021/07/13 10:57:22;;;;;;;3.83;2.55;;;16.80;99.90;;;;;;6244548;28;20084;-79
2021/07/13 11:03:50;;;;;;;2.50;2.30;;;17.20;99.90;;;;;;6245279;28;20029;-80
2021/07/13 11:06:55;;;;;;;2.58;1.95;;;17.30;99.90;;;;;;6227951;28;20025;-80
2021/07/13 11:09:55;;;;;;;2.25;2.00;;;17.30;99.90;;;;;;6244447;28;20034;-79
2021/07/13 11:12:56;;;;;;;2.25;1.90;;;17.40;99.90;;;;;;6244825;28;20037;-79
2021/07/13 11:15:57;;;;;;;1.63;1.52;;;17.10;99.90;;;;;;6244391;28;20172;-80
2021/07/13 11:18:58;;;;;;;1.92;1.83;;;17.10;99.90;;;;;;6227223;28;20064;-79
2021/07/13 11:21:59;;;;;;;1.80;1.70;;;16.90;99.90;;;;;;6244534;28;20033;-79
2021/07/13 11:24:59;;;;;;;1.95;1.85;;;16.90;99.90;;;;;;6245222;28;20382;-80
2021/07/13 11:28:01;;;;;;;2.30;1.90;;;17.00;99.90;;;;;;6222647;28;20042;-79
2021/07/13 11:31:05;;;;;;;1.60;1.50;;;17.00;99.90;;;;;;6243449;28;20391;-79
2021/07/13 11:34:05;;;;;;;1.60;1.50;;;17.10;99.90;;;;;;6243791;28;20435;-79
2021/07/13 11:37:06;;;;;;;1.70;1.60;;;17.20;99.90;;;;;;6235762;28;20065;-79
2021/07/13 11:40:08;;;;;;;4.78;1.98;;;17.20;99.90;;;;;;6235926;28;20034;-79
2021/07/13 11:43:08;;;;;;;1.75;1.65;;;17.40;99.90;;;;;;6244807;28;20091;-79
2021/07/13 11:46:10;;;;;;;2.85;1.75;;;17.50;99.90;;;;;;6243885;28;20026;-79
2021/07/13 11:49:12;;;;;;;1.55;1.45;;;17.60;99.90;;;;;;6244770;28;20026;-79
2021/07/13 11:52:14;;;;;;;2.45;1.83;;;17.40;99.90;;;;;;6235819;28;20113;-79
2021/07/13 11:55:23;;;;;;;3.85;1.80;;;17.60;99.90;;;;;;6243429;28;20037;-79
2021/07/13 11:58:28;;;;;;;3.70;2.05;;;17.70;99.90;;;;;;6244033;28;20025;-79
2021/07/13 12:01:30;;;;;;;2.25;2.00;;;17.70;99.90;;;;;;6244398;28;20030;-79
2021/07/13 12:04:38;;;;;;;2.40;2.20;;;17.90;99.90;;;;;;6243028;28;20059;-80
2021/07/13 12:07:45;;;;;;;2.20;2.00;;;18.00;99.90;;;;;;6243298;28;20037;-79
2021/07/13 12:10:51;;;;;;;2.25;2.05;;;18.10;99.90;;;;;;6242850;28;20053;-79
2021/07/13 12:13:52;;;;;;;1.90;1.80;;;18.30;99.90;;;;;;6231109;28;20535;-79
2021/07/13 12:16:55;;;;;;;2.50;2.30;;;18.60;99.90;;;;;;6229174;28;20054;-79
2021/07/13 12:19:55;;;;;;;2.03;1.90;;;18.60;99.90;;;;;;6234307;28;20054;-79
2021/07/13 12:22:56;;;;;;;2.00;1.83;;;18.60;99.90;;;;;;6235104;28;20487;-79
2021/07/13 12:26:20;;;;;;;2.35;2.15;;;18.70;99.90;;;;;;6243115;28;20102;-80
2021/07/13 12:29:24;;;;;;;2.08;1.90;;;18.50;99.90;;;;;;6234306;28;20045;-79
2021/07/13 12:32:33;;;;;;;2.15;1.98;;;18.60;99.90;;;;;;6235352;28;20707;-79
2021/07/13 12:35:34;;;;;;;2.40;2.20;;;18.30;99.90;;;;;;6258049;28;20069;-79
2021/07/13 12:38:37;;;;;;;2.50;2.30;;;18.80;99.90;;;;;;6224134;28;20030;-81
2021/07/13 12:41:44;;;;;;;3.25;2.10;;;18.80;99.90;;;;;;6239173;28;20680;-79
2021/07/13 12:44:46;;;;;;;2.28;2.00;;;18.80;99.90;;;;;;6240505;28;20091;-78
2021/07/13 12:47:47;;;;;;;3.10;2.20;;;18.70;99.90;;;;;;6234330;28;20025;-78
2021/07/13 12:50:49;;;;;;;2.42;2.05;;;18.60;99.90;;;;;;6234888;28;20025;-77
2021/07/13 12:54:06;;;;;;;2.03;1.83;;;18.50;99.90;;;;;;6241914;28;20025;-77
2021/07/13 12:57:32;;;;;;;3.20;2.10;;;18.60;99.90;;;;;;6241822;28;20051;-77
2021/07/13 13:00:32;;;;;;;3.38;2.30;;;18.70;99.90;;;;;;6224844;28;20050;-76
2021/07/13 13:03:36;;;;;;;2.50;2.30;;;19.00;99.90;;;;;;6241766;28;20033;-76
2021/07/13 13:06:38;;;;;;;6.65;2.47;;;;;;;;;;6242715;28;20471;-77
2021/07/13 13:09:39;;;;;;;4.72;2.53;;;19.20;99.90;;;;;;6240927;28;20052;-76
2021/07/13 13:12:50;;;;;;;2.40;2.20;;;19.40;99.90;;;;;;6232979;28;20380;-76
2021/07/13 13:15:51;;;;;;;4.97;2.90;;;19.40;99.90;;;;;;6235900;28;20045;-76
2021/07/13 13:18:54;;;;;;;6.10;4.55;;;19.10;99.90;;;;;;6239179;28;20478;-76
2021/07/13 13:21:55;;;;;;;4.50;2.58;;;19.50;99.90;;;;;;6255736;28;20056;-76
2021/07/13 13:24:55;;;;;;;12.50;5.40;;;19.40;99.90;;;;;;6242263;28;20029;-76
2021/07/13 13:27:56;;;;;;;27.27;12.75;;;19.40;99.90;;;;;;6242011;28;20029;-75
2021/07/13 13:30:57;;;;;;;3.08;2.78;;;;;;;;;;6242460;28;20407;-76
2021/07/13 13:33:58;;;;;;;3.55;2.75;;;19.70;99.90;;;;;;6245652;28;20084;-77
2021/07/13 13:37:05;;;;;;;6.97;3.50;;;19.90;99.90;;;;;;6240910;28;20077;-76
2021/07/13 13:40:07;;;;;;;4.35;2.50;;;20.20;99.90;;;;;;6222446;28;20121;-77
2021/07/13 13:43:07;;;;;;;4.40;2.55;;;19.80;99.90;;;;;;6247058;28;20040;-77
2021/07/13 13:46:08;;;;;;;5.15;3.33;;;20.70;99.90;;;;;;6247469;28;20071;-79
2021/07/13 13:49:08;;;;;;;2.60;2.40;;;20.90;99.90;;;;;;6229498;28;20021;-77
2021/07/13 13:52:09;;;;;;;3.85;2.97;;;21.00;99.90;;;;;;6247120;28;20025;-76
2021/07/13 13:55:10;;;;;;;2.70;2.50;;;20.70;99.90;;;;;;6246979;28;20391;-77
2021/07/13 13:58:10;;;;;;;8.27;3.70;;;20.90;99.90;;;;;;6229153;28;20098;-76
2021/07/13 14:01:13;;;;;;;3.88;2.80;;;20.80;99.90;;;;;;6223711;28;20577;-77
2021/07/13 14:04:13;;;;;;;2.30;2.00;;;20.90;99.90;;;;;;6262323;28;20025;-79
2021/07/13 14:07:14;;;;;;;2.50;2.30;;;20.80;98.90;;;;;;6229401;28;20071;-78
2021/07/13 14:10:15;;;;;;;2.60;2.40;;;20.70;98.90;;;;;;6239625;28;20395;-77
2021/07/13 14:13:15;;;;;;;3.08;2.38;;;20.50;98.50;;;;;;6245796;28;20030;-78
2021/07/13 14:16:16;;;;;;;3.05;2.05;;;20.50;99.30;;;;;;6246448;28;20049;-78
2021/07/13 14:19:17;;;;;;;2.42;2.22;;;20.70;97.90;;;;;;6245160;28;20049;-77
2021/07/13 14:22:18;;;;;;;2.35;2.05;;;20.80;98.80;;;;;;6245280;28;20065;-78
2021/07/13 14:25:19;;;;;;;8.05;2.58;;;20.90;99.50;;;;;;6245634;28;20060;-77
2021/07/13 14:28:20;;;;;;;2.80;2.30;;;21.10;99.60;;;;;;6246400;28;20029;-78
2021/07/13 14:31:20;;;;;;;5.22;3.00;;;21.00;97.60;;;;;;6246430;28;20057;-77
2021/07/13 14:34:21;;;;;;;3.75;2.60;;;21.10;98.90;;;;;;6246036;28;20044;-78
2021/07/13 14:37:21;;;;;;;4.22;3.08;;;21.20;99.90;;;;;;6224824;28;20057;-77
2021/07/13 14:40:22;;;;;;;5.88;2.60;;;21.30;99.90;;;;;;6241274;28;20137;-78
2021/07/13 14:43:22;;;;;;;6.13;2.88;;;21.20;99.90;;;;;;6245228;28;20061;-78
2021/07/13 14:46:23;;;;;;;2.58;2.38;;;21.10;99.90;;;;;;6245829;28;20464;-78
2021/07/13 14:49:24;;;;;;;5.43;2.80;;;21.20;99.90;;;;;;6244680;28;20076;-77
2021/07/13 14:52:24;;;;;;;2.70;2.42;;;21.20;99.90;;;;;;6245972;28;20033;-77
2021/07/13 14:55:25;;;;;;;3.25;2.42;;;21.00;99.90;;;;;;6244098;28;20116;-77
2021/07/13 14:58:26;;;;;;;5.00;2.88;;;20.90;99.70;;;;;;6228455;28;20064;-75
2021/07/13 15:01:26;;;;;;;4.22;2.97;;;20.90;98.40;;;;;;6244527;28;20034;-76
2021/07/13 15:04:27;;;;;;;3.13;2.53;;;20.80;98.60;;;;;;6245494;28;20044;-77
2021/07/13 15:07:27;;;;;;;2.90;2.60;;;20.80;98.80;;;;;;6244910;28;20034;-79
2021/07/13 15:10:28;;;;;;;3.38;3.03;;;20.70;97.70;;;;;;6244952;28;20033;-77
2021/07/13 15:13:29;;;;;;;3.75;2.80;;;20.60;97.80;;;;;;6230771;28;20026;-77
2021/07/13 15:16:29;;;;;;;8.63;4.60;;;20.40;99.90;;;;;;6221836;28;20133;-77
2021/07/13 15:19:30;;;;;;;6.05;3.60;;;20.50;98.90;;;;;;6221751;28;20042;-78
2021/07/13 15:22:31;;;;;;;3.60;3.00;;;20.50;98.90;;;;;;6236808;28;20155;-78
2021/07/13 15:25:32;;;;;;;11.88;4.07;;;20.40;98.50;;;;;;6245113;28;20399;-77
2021/07/13 15:28:32;;;;;;;7.07;3.78;;;20.40;99.90;;;;;;6243365;28;20049;-78
2021/07/13 15:31:33;;;;;;;8.30;3.80;;;20.30;99.90;;;;;;6244090;28;20029;-83
2021/07/13 15:34:34;;;;;;;4.03;3.00;;;20.40;99.90;;;;;;6227252;28;20439;-77
2021/07/13 15:37:34;;;;;;;4.30;3.13;;;20.60;99.40;;;;;;6243796;28;20045;-83
2021/07/13 15:40:36;;;;;;;6.18;3.00;;;20.80;98.60;;;;;;6242865;28;20030;-79
2021/07/13 15:43:37;;;;;;;4.03;3.00;;;20.80;98.60;;;;;;6243574;28;20029;-79
2021/07/13 15:46:37;;;;;;;5.05;2.85;;;21.20;99.90;;;;;;6243650;28;20494;-78
2021/07/13 15:49:39;;;;;;;3.35;2.97;;;21.00;96.80;;;;;;6243476;28;20036;-78
2021/07/13 15:52:40;;;;;;;3.28;2.97;;;20.90;97.00;;;;;;6238771;28;20018;-79
2021/07/13 15:55:40;;;;;;;5.32;3.00;;;21.10;96.50;;;;;;6241980;28;20045;-78
2021/07/13 15:58:41;;;;;;;5.95;3.55;;;20.40;96.20;;;;;;6243261;28;20025;-78